createdAt,value
2023-01-30T00:01:48.549Z,12.73
2023-01-30T00:04:51.607Z,11.75
2023-01-30T00:07:54.305Z,12.77
2023-01-30T00:10:57.332Z,11.40
2023-01-30T00:14:01.653Z,10.80
2023-01-30T00:17:04.726Z,12.77
2023-01-30T00:20:07.771Z,11.43
2023-01-30T00:23:10.781Z,13.55
2023-01-30T00:26:14.229Z,13.32
2023-01-30T00:29:18.137Z,11.70
2023-01-30T00:32:20.841Z,13.33
2023-01-30T00:35:28.835Z,12.65
2023-01-30T00:38:31.698Z,14.35
2023-01-30T00:41:53.135Z,14.15
2023-01-30T00:45:14.176Z,14.60
2023-01-30T00:48:17.264Z,13.02
2023-01-30T00:51:20.001Z,11.43
2023-01-30T00:54:23.618Z,12.20
2023-01-30T00:57:27.222Z,13.60
2023-01-30T01:00:30.938Z,12.40
2023-01-30T01:03:33.623Z,12.15
2023-01-30T01:06:37.648Z,11.85
2023-01-30T01:09:40.843Z,10.63
2023-01-30T01:12:44.942Z,12.35
2023-01-30T01:15:47.606Z,11.95
2023-01-30T01:18:51.586Z,13.88
2023-01-30T01:21:54.502Z,11.93
2023-01-30T01:24:57.533Z,11.40
2023-01-30T01:28:00.267Z,14.02
2023-01-30T01:31:14.030Z,11.27
2023-01-30T01:34:16.910Z,11.43
2023-01-30T01:37:20.148Z,11.35
2023-01-30T01:40:41.994Z,10.48
2023-01-30T01:44:00.045Z,11.07
2023-01-30T01:47:03.161Z,10.75
2023-01-30T01:50:12.416Z,11.55
2023-01-30T01:53:19.376Z,11.43
2023-01-30T01:56:24.066Z,12.10
2023-01-30T01:59:33.098Z,10.60
2023-01-30T02:02:36.354Z,12.05
2023-01-30T02:05:45.339Z,10.07
2023-01-30T02:08:53.634Z,11.60
2023-01-30T02:12:02.079Z,10.48
2023-01-30T02:15:06.146Z,10.50
2023-01-30T02:18:09.650Z,10.55
2023-01-30T02:21:21.204Z,10.93
2023-01-30T02:24:33.379Z,10.85
2023-01-30T02:28:04.726Z,10.75
2023-01-30T02:31:35.543Z,10.63
2023-01-30T02:34:59.964Z,10.57
2023-01-30T02:38:27.525Z,10.88
2023-01-30T02:41:40.991Z,11.18
2023-01-30T02:45:10.068Z,11.27
2023-01-30T02:48:30.798Z,9.75
2023-01-30T02:51:39.271Z,10.85
2023-01-30T02:54:42.081Z,11.30
2023-01-30T02:57:45.489Z,10.20
2023-01-30T03:01:12.297Z,10.05
2023-01-30T03:04:35.881Z,8.07
2023-01-30T03:07:51.102Z,9.93
2023-01-30T03:11:02.376Z,10.80
2023-01-30T03:14:26.975Z,10.05
2023-01-30T03:17:33.195Z,10.90
2023-01-30T03:20:40.887Z,9.75
2023-01-30T03:23:46.987Z,9.67
2023-01-30T03:27:02.563Z,10.25
2023-01-30T03:30:06.444Z,11.07
2023-01-30T03:33:09.197Z,10.52
2023-01-30T03:36:12.759Z,12.65
2023-01-30T03:39:15.963Z,11.43
2023-01-30T03:42:19.406Z,10.35
2023-01-30T03:45:22.182Z,12.80
2023-01-30T03:48:25.260Z,14.15
2023-01-30T03:51:29.419Z,13.02
2023-01-30T03:54:33.043Z,12.60
2023-01-30T03:57:35.911Z,11.73
2023-01-30T04:00:39.032Z,12.40
2023-01-30T04:03:43.025Z,10.45
2023-01-30T04:06:45.833Z,13.50
2023-01-30T04:09:48.938Z,11.60
2023-01-30T04:12:53.080Z,10.65
2023-01-30T04:16:16.947Z,10.00
2023-01-30T04:19:23.404Z,9.18
2023-01-30T04:22:29.084Z,10.35
2023-01-30T04:25:31.901Z,18.80
2023-01-30T04:28:36.387Z,13.27
2023-01-30T04:31:39.508Z,13.50
2023-01-30T04:34:44.105Z,10.27
2023-01-30T04:37:47.257Z,9.67
2023-01-30T04:40:54.146Z,12.60
2023-01-30T04:43:56.999Z,13.02
2023-01-30T04:47:00.234Z,16.92
2023-01-30T04:50:03.884Z,15.27
2023-01-30T04:53:07.001Z,13.68
2023-01-30T04:56:09.927Z,11.10
2023-01-30T04:59:15.372Z,14.10
2023-01-30T05:02:18.493Z,13.40
2023-01-30T05:05:26.052Z,12.30
2023-01-30T05:08:29.088Z,13.90
2023-01-30T05:11:33.075Z,11.43
2023-01-30T05:14:35.816Z,11.88
2023-01-30T05:17:39.068Z,11.88
2023-01-30T05:20:41.714Z,13.33
2023-01-30T05:23:45.037Z,18.90
2023-01-30T05:26:47.937Z,16.10
2023-01-30T05:29:51.003Z,15.10
2023-01-30T05:32:53.633Z,15.67
2023-01-30T05:35:56.828Z,12.27
2023-01-30T05:38:59.529Z,12.85
2023-01-30T05:42:03.651Z,15.93
2023-01-30T05:45:07.002Z,14.23
2023-01-30T05:48:10.063Z,17.73
2023-01-30T05:51:24.412Z,16.08
2023-01-30T05:54:27.501Z,17.92
2023-01-30T05:57:30.188Z,13.13
2023-01-30T06:00:33.396Z,14.57
2023-01-30T06:03:36.700Z,13.53
2023-01-30T06:06:39.570Z,15.65
2023-01-30T06:09:42.657Z,13.82
2023-01-30T06:12:45.334Z,14.05
2023-01-30T06:15:49.038Z,12.97
2023-01-30T06:18:51.862Z,14.93
2023-01-30T06:21:55.085Z,16.42
2023-01-30T06:24:57.790Z,17.93
2023-01-30T06:28:00.893Z,18.87
2023-01-30T06:31:06.571Z,15.82
2023-01-30T06:34:11.463Z,16.42
2023-01-30T06:37:14.290Z,21.58
2023-01-30T06:40:17.815Z,22.62
2023-01-30T06:43:20.500Z,22.37
2023-01-30T06:46:23.616Z,25.10
2023-01-30T06:49:26.721Z,19.92
2023-01-30T06:52:29.757Z,20.20
2023-01-30T06:55:36.876Z,22.42
2023-01-30T06:58:40.250Z,27.13
2023-01-30T07:01:42.974Z,8.40
2023-01-30T07:04:46.163Z,14.35
2023-01-30T07:07:49.031Z,7.95
2023-01-30T07:10:52.128Z,27.23
2023-01-30T07:13:54.823Z,12.52
2023-01-30T07:16:58.041Z,29.85
2023-01-30T07:20:00.834Z,19.00
2023-01-30T07:23:04.215Z,15.82
2023-01-30T07:26:07.238Z,13.40
2023-01-30T07:29:10.383Z,18.33
2023-01-30T07:32:20.002Z,16.13
2023-01-30T07:35:24.999Z,57.40
2023-01-30T07:38:27.643Z,11.20
2023-01-30T07:41:31.065Z,16.02
2023-01-30T07:44:36.539Z,13.90
2023-01-30T07:47:39.736Z,13.18
2023-01-30T07:50:43.496Z,14.02
2023-01-30T07:53:51.725Z,9.15
2023-01-30T07:56:54.506Z,17.67
2023-01-30T07:59:57.809Z,18.77
2023-01-30T08:03:00.626Z,18.62
2023-01-30T08:06:03.937Z,12.95
2023-01-30T08:09:07.738Z,15.98
2023-01-30T08:12:10.799Z,12.77
2023-01-30T08:15:13.576Z,29.03
2023-01-30T08:18:16.913Z,12.30
2023-01-30T08:21:19.628Z,17.23
2023-01-30T08:24:22.685Z,19.05
2023-01-30T08:27:25.426Z,17.67
2023-01-30T08:30:30.667Z,20.20
2023-01-30T08:33:34.058Z,15.38
2023-01-30T08:36:37.155Z,18.27
2023-01-30T08:39:39.863Z,17.75
2023-01-30T08:42:46.175Z,17.75
2023-01-30T08:45:49.244Z,18.37
2023-01-30T08:48:52.305Z,19.35
2023-01-30T08:51:55.083Z,18.55
2023-01-30T08:54:58.817Z,15.82
2023-01-30T08:58:01.975Z,18.30
2023-01-30T09:01:08.630Z,15.32
2023-01-30T09:04:11.465Z,16.17
2023-01-30T09:07:14.504Z,16.33
2023-01-30T09:10:18.327Z,17.17
2023-01-30T09:13:21.479Z,14.90
2023-01-30T09:16:24.260Z,14.77
2023-01-30T09:19:28.893Z,12.68
2023-01-30T09:22:31.998Z,13.73
2023-01-30T09:25:35.169Z,16.40
2023-01-30T09:28:37.860Z,8.67
2023-01-30T09:31:41.461Z,14.38
2023-01-30T09:34:44.197Z,5.82
2023-01-30T09:37:52.124Z,12.93
2023-01-30T09:41:01.087Z,10.88
2023-01-30T09:44:35.247Z,9.17
2023-01-30T09:48:14.005Z,7.43
2023-01-30T09:51:36.505Z,9.13
2023-01-30T09:54:42.915Z,9.18
2023-01-30T09:57:49.227Z,10.65
2023-01-30T10:00:55.380Z,9.10
2023-01-30T10:04:24.425Z,5.33
2023-01-30T10:07:36.273Z,6.65
2023-01-30T10:11:10.953Z,9.65
2023-01-30T10:14:32.068Z,8.43
2023-01-30T10:17:53.073Z,7.63
2023-01-30T10:21:31.063Z,7.43
2023-01-30T10:24:49.693Z,8.23
2023-01-30T10:28:35.105Z,15.73
2023-01-30T10:31:47.434Z,8.90
2023-01-30T10:34:53.766Z,7.13
2023-01-30T10:37:57.531Z,10.90
2023-01-30T10:41:13.578Z,5.85
2023-01-30T10:44:18.736Z,8.95
2023-01-30T10:47:48.091Z,10.40
2023-01-30T10:50:59.884Z,6.17
2023-01-30T10:54:13.599Z,13.57
2023-01-30T10:57:48.520Z,8.82
2023-01-30T11:01:01.932Z,8.43
2023-01-30T11:04:14.523Z,8.77
2023-01-30T11:07:17.334Z,6.77
2023-01-30T11:10:24.132Z,6.23
2023-01-30T11:13:34.011Z,7.05
2023-01-30T11:16:56.944Z,7.28
2023-01-30T11:20:06.398Z,8.52
2023-01-30T11:23:41.596Z,9.20
2023-01-30T11:26:47.733Z,9.87
2023-01-30T11:30:04.707Z,11.40
2023-01-30T11:33:18.528Z,13.62
2023-01-30T11:36:35.836Z,11.50
2023-01-30T11:39:50.716Z,8.93
2023-01-30T11:43:04.027Z,13.50
2023-01-30T11:46:14.483Z,23.05
2023-01-30T11:49:47.057Z,13.18
2023-01-30T11:52:46.857Z,9.35
2023-01-30T11:56:02.942Z,12.30
2023-01-30T11:59:37.211Z,13.10
2023-01-30T12:02:40.576Z,11.88
2023-01-30T12:05:47.866Z,15.18
2023-01-30T12:08:55.113Z,15.63
2023-01-30T12:11:58.862Z,14.87
2023-01-30T12:15:26.146Z,14.10
2023-01-30T12:18:35.753Z,13.43
2023-01-30T12:22:22.083Z,15.38
2023-01-30T12:25:35.965Z,16.65
2023-01-30T12:28:47.933Z,15.70
2023-01-30T12:32:13.527Z,17.40
2023-01-30T12:35:24.308Z,14.55
2023-01-30T12:38:51.670Z,13.48
2023-01-30T12:45:25.699Z,13.30
2023-01-30T12:48:44.180Z,13.13
2023-01-30T12:52:13.897Z,12.40
2023-01-30T12:55:22.791Z,12.93
2023-01-30T12:58:35.468Z,13.93
2023-01-30T13:02:02.206Z,12.97
2023-01-30T13:05:21.632Z,17.73
2023-01-30T13:09:07.120Z,19.87
2023-01-30T13:12:24.317Z,17.02
2023-01-30T13:15:44.288Z,18.00
2023-01-30T13:18:51.027Z,17.97
2023-01-30T13:22:19.778Z,16.27
2023-01-30T13:25:41.491Z,20.70
2023-01-30T13:28:47.843Z,29.50
2023-01-30T13:31:55.085Z,24.98
2023-01-30T13:34:59.701Z,14.67
2023-01-30T13:38:05.288Z,13.87
2023-01-30T13:41:12.917Z,23.73
2023-01-30T13:44:27.976Z,28.12
2023-01-30T13:47:49.654Z,26.60
2023-01-30T13:51:10.738Z,31.67
2023-01-30T13:54:22.650Z,24.90
2023-01-30T13:58:11.716Z,23.80
2023-01-30T14:01:15.034Z,41.47
2023-01-30T14:04:37.071Z,39.50
2023-01-30T14:07:42.143Z,24.30
2023-01-30T14:10:45.434Z,23.60
2023-01-30T14:13:53.881Z,27.23
2023-01-30T14:17:09.216Z,26.23
2023-01-30T14:20:17.416Z,24.77
2023-01-30T14:23:34.512Z,25.70
2023-01-30T14:27:02.160Z,22.63
2023-01-30T14:30:34.730Z,25.80
2023-01-30T14:33:51.692Z,20.25
2023-01-30T14:36:55.035Z,19.37
2023-01-30T14:40:00.007Z,16.37
2023-01-30T14:43:12.272Z,15.87
2023-01-30T14:46:18.102Z,15.48
2023-01-30T14:49:28.417Z,13.07
2023-01-30T14:52:39.197Z,12.10
2023-01-30T14:55:42.450Z,12.50
2023-01-30T14:59:17.215Z,11.77
2023-01-30T15:02:24.433Z,12.18
2023-01-30T15:05:39.220Z,12.98
2023-01-30T15:08:44.677Z,13.57
2023-01-30T15:11:56.876Z,8.13
2023-01-30T15:15:21.555Z,10.53
2023-01-30T15:18:39.169Z,13.20
2023-01-30T15:21:52.329Z,14.07
2023-01-30T15:25:26.200Z,11.35
2023-01-30T15:28:51.041Z,13.93
2023-01-30T15:32:02.891Z,14.07
2023-01-30T15:35:11.984Z,10.50
2023-01-30T15:38:34.709Z,11.80
2023-01-30T15:41:42.550Z,15.30
2023-01-30T15:44:45.619Z,16.03
2023-01-30T15:47:54.967Z,16.60
2023-01-30T15:51:00.349Z,16.48
2023-01-30T15:54:10.590Z,17.17
2023-01-30T15:57:21.052Z,17.77
2023-01-30T16:00:49.612Z,17.23
2023-01-30T16:03:53.666Z,15.57
2023-01-30T16:06:56.429Z,16.62
2023-01-30T16:10:07.321Z,19.05
2023-01-30T16:13:10.512Z,15.60
2023-01-30T16:16:18.925Z,16.73
2023-01-30T16:19:28.444Z,15.73
2023-01-30T16:22:35.405Z,14.55
2023-01-30T16:25:38.583Z,9.13
2023-01-30T16:28:41.917Z,17.95
2023-01-30T16:31:47.844Z,20.83
2023-01-30T16:34:51.525Z,8.40
2023-01-30T16:37:56.576Z,18.35
2023-01-30T16:41:01.198Z,17.67
2023-01-30T16:44:23.304Z,17.85
2023-01-30T16:47:32.035Z,19.03
2023-01-30T16:50:35.128Z,16.58
2023-01-30T16:53:51.543Z,19.27
2023-01-30T16:56:57.501Z,21.35
2023-01-30T17:00:03.869Z,22.62
2023-01-30T17:03:20.900Z,21.47
2023-01-30T17:06:35.920Z,19.43
2023-01-30T17:09:47.192Z,19.80
2023-01-30T17:12:52.909Z,18.60
2023-01-30T17:16:26.284Z,21.48
2023-01-30T17:19:29.741Z,18.17
2023-01-30T17:22:33.356Z,26.07
2023-01-30T17:25:41.659Z,21.52
2023-01-30T17:28:48.183Z,24.55
2023-01-30T17:31:53.585Z,23.87
2023-01-30T17:34:59.976Z,24.40
2023-01-30T17:38:05.929Z,25.97
2023-01-30T17:41:21.167Z,24.92
2023-01-30T17:44:24.951Z,14.75
2023-01-30T17:47:29.361Z,20.05
2023-01-30T17:50:33.739Z,52.67
2023-01-30T17:53:39.972Z,19.97
2023-01-30T17:56:48.762Z,17.73
2023-01-30T17:59:51.769Z,15.70
2023-01-30T18:02:55.965Z,16.83
2023-01-30T18:06:00.751Z,17.90
2023-01-30T18:09:04.943Z,17.62
2023-01-30T18:12:08.481Z,23.90
2023-01-30T18:15:16.701Z,28.02
2023-01-30T18:18:21.312Z,19.92
2023-01-30T18:21:26.578Z,26.40
2023-01-30T18:24:30.358Z,22.20
2023-01-30T18:27:34.429Z,22.05
2023-01-30T18:30:38.648Z,21.48
2023-01-30T18:33:45.265Z,19.92
2023-01-30T18:36:50.055Z,37.07
2023-01-30T18:39:53.532Z,25.37
2023-01-30T18:42:59.213Z,24.75
2023-01-30T18:46:13.015Z,28.45
2023-01-30T18:49:17.333Z,26.23
2023-01-30T18:52:21.185Z,21.13
2023-01-30T18:55:25.889Z,11.70
2023-01-30T18:58:32.829Z,8.43
2023-01-30T19:01:42.810Z,4.93
2023-01-30T19:04:50.402Z,3.60
2023-01-30T19:07:56.281Z,3.30
2023-01-30T19:11:30.352Z,3.70
2023-01-30T19:14:35.608Z,4.20
2023-01-30T19:17:40.164Z,3.95
2023-01-30T19:20:45.678Z,4.32
2023-01-30T19:23:51.714Z,5.00
2023-01-30T19:26:56.647Z,3.30
2023-01-30T19:30:01.128Z,4.43
2023-01-30T19:33:10.757Z,3.03
2023-01-30T19:36:17.954Z,3.58
2023-01-30T19:39:22.429Z,4.20
2023-01-30T19:42:27.922Z,4.47
2023-01-30T19:45:33.424Z,4.20
2023-01-30T19:48:39.225Z,4.40
2023-01-30T19:51:43.936Z,4.03
2023-01-30T19:54:48.547Z,3.90
2023-01-30T19:57:54.330Z,4.10
2023-01-30T20:01:06.480Z,5.35
2023-01-30T20:04:11.225Z,5.78
2023-01-30T20:07:20.342Z,3.58
2023-01-30T20:10:25.735Z,4.93
2023-01-30T20:13:29.993Z,3.67
2023-01-30T20:16:36.232Z,4.00
2023-01-30T20:19:40.107Z,3.70
2023-01-30T20:22:44.125Z,3.05
2023-01-30T20:25:48.648Z,2.00
2023-01-30T20:28:58.958Z,2.53
2023-01-30T20:32:06.795Z,2.95
2023-01-30T20:35:11.729Z,2.60
2023-01-30T20:38:15.908Z,2.58
2023-01-30T20:41:26.193Z,2.80
2023-01-30T20:44:30.090Z,2.12
2023-01-30T20:47:35.309Z,1.98
2023-01-30T20:50:39.560Z,2.47
2023-01-30T20:53:51.577Z,2.20
2023-01-30T20:56:57.248Z,1.50
2023-01-30T21:00:02.215Z,2.15
2023-01-30T21:03:05.929Z,1.65
2023-01-30T21:06:09.911Z,2.92
2023-01-30T21:09:19.429Z,3.17
2023-01-30T21:12:24.007Z,2.57
2023-01-30T21:15:27.662Z,2.40
2023-01-30T21:18:35.401Z,3.28
2023-01-30T21:21:42.872Z,2.62
2023-01-30T21:24:46.941Z,1.85
2023-01-30T21:27:50.095Z,2.50
2023-01-30T21:30:54.573Z,2.08
2023-01-30T21:34:00.316Z,3.12
2023-01-30T21:37:23.032Z,2.08
2023-01-30T21:40:44.307Z,2.60
2023-01-30T21:43:48.886Z,2.60
2023-01-30T21:46:52.220Z,2.70
2023-01-30T21:49:55.530Z,3.00
2023-01-30T21:52:58.387Z,2.87
2023-01-30T21:56:02.027Z,2.47
2023-01-30T21:59:05.814Z,2.47
2023-01-30T22:02:10.482Z,1.40
2023-01-30T22:05:13.560Z,2.97
2023-01-30T22:08:16.362Z,2.33
2023-01-30T22:11:19.730Z,1.77
2023-01-30T22:14:22.556Z,2.17
2023-01-30T22:17:25.736Z,2.03
2023-01-30T22:20:28.514Z,2.25
2023-01-30T22:23:33.679Z,3.42
2023-01-30T22:26:36.881Z,2.30
2023-01-30T22:29:39.946Z,2.80
2023-01-30T22:32:42.701Z,2.55
2023-01-30T22:35:51.031Z,2.95
2023-01-30T22:38:54.292Z,1.48
2023-01-30T22:41:57.317Z,2.97
2023-01-30T22:45:00.042Z,2.10
2023-01-30T22:48:03.259Z,1.92
2023-01-30T22:51:08.741Z,4.07
2023-01-30T22:54:16.984Z,3.92
2023-01-30T22:57:19.759Z,2.67
2023-01-30T23:00:22.874Z,1.47
2023-01-30T23:03:25.657Z,1.52
2023-01-30T23:06:30.256Z,2.30
2023-01-30T23:09:32.995Z,1.92
2023-01-30T23:12:54.788Z,1.92
2023-01-30T23:16:02.060Z,1.80
2023-01-30T23:19:06.852Z,1.37
2023-01-30T23:22:09.598Z,1.90
2023-01-30T23:25:12.549Z,2.20
2023-01-30T23:28:15.472Z,2.00
2023-01-30T23:31:21.497Z,1.50
2023-01-30T23:34:24.655Z,2.37
2023-01-30T23:37:47.645Z,1.83
2023-01-30T23:40:50.524Z,2.00
2023-01-30T23:43:53.839Z,2.20
2023-01-30T23:46:56.560Z,1.23
2023-01-30T23:49:59.516Z,1.45
2023-01-30T23:53:02.221Z,2.28
2023-01-30T23:56:06.727Z,2.00
2023-01-30T23:59:09.964Z,1.85
